Time;durP1;ratioP1;P1;durP2;ratioP2;P2;SDS_P1;SDS_P2;PMS_P1;PMS_P2;Temp;Humidity;BMP_temperature;BMP_pressure;BME280_temperature;BME280_humidity;BME280_pressure;Samples;Min_cycle;Max_cycle;Signal;HPM_P1;HPM_P2
2022/10/27 00:10:00;;;;;;;;;;;;;;;11.71;100.00;101603.31;20945485;28;19925;-64
2022/10/27 00:20:22;;;;;;;;;;;;;;;11.59;100.00;101622.28;20994593;28;19928;-64
2022/10/27 00:30:43;;;;;;;;;;;;;;;11.54;100.00;101632.13;20961152;28;19991;-63
2022/10/27 00:41:06;;;;;;;;;;;;;;;11.42;100.00;101648.44;20957434;28;19929;-65
2022/10/27 00:51:28;;;;;;;;;;;;;;;11.42;100.00;101651.06;20960740;28;19929;-63
2022/10/27 01:01:50;;;;;;;;;;;;;;;11.59;100.00;101666.69;20992922;28;19973;-66
2022/10/27 01:12:11;;;;;;;;;;;;;;;11.52;100.00;101670.50;21024746;28;20118;-64
2022/10/27 01:22:36;;;;;;;;;;;;;;;11.45;100.00;101678.75;21021919;28;20335;-63
2022/10/27 01:33:09;;;;;;;;;;;;;;;11.36;100.00;101680.09;20976795;28;19985;-64
2022/10/27 01:43:31;;;;;;;;;;;;;;;11.29;100.00;101677.91;20997308;28;20335;-64
2022/10/27 01:53:52;;;;;;;;;;;;;;;11.32;100.00;101689.03;20980797;28;20002;-64
2022/10/27 02:04:23;;;;;;;;;;;;;;;11.46;100.00;101701.34;20986793;28;19924;-63
2022/10/27 02:14:46;;;;;;;;;;;;;;;11.42;100.00;101694.63;20971821;28;19925;-64
2022/10/27 02:25:07;;;;;;;;;;;;;;;11.45;100.00;101710.09;20966200;28;19967;-64
2022/10/27 02:35:29;;;;;;;;;;;;;;;11.52;100.00;101720.13;20983740;28;20006;-61
2022/10/27 02:45:52;;;;;;;;;;;;;;;11.66;100.00;101722.84;20968984;28;19946;-61
2022/10/27 02:56:13;;;;;;;;;;;;;;;11.82;100.00;101721.94;20968256;28;20373;-61
2022/10/27 03:06:34;;;;;;;;;;;;;;;11.87;100.00;101726.91;20967329;28;19928;-63
2022/10/27 03:16:56;;;;;;;;;;;;;;;11.89;100.00;101710.22;20995188;28;20365;-62
2022/10/27 03:27:17;;;;;;;;;;;;;;;11.74;100.00;101713.66;20961178;28;19924;-63
2022/10/27 03:37:38;;;;;;;;;;;;;;;11.60;100.00;101721.41;20979569;28;19947;-65
2022/10/27 03:48:01;;;;;;;;;;;;;;;11.70;100.00;101711.31;20964092;28;20088;-62
2022/10/27 03:58:22;;;;;;;;;;;;;;;11.77;100.00;101728.34;21000900;28;19929;-66
2022/10/27 04:08:44;;;;;;;;;;;;;;;11.78;100.00;101730.03;20962482;28;20021;-62
2022/10/27 04:19:05;;;;;;;;;;;;;;;11.84;100.00;101724.47;20991031;28;19974;-62
2022/10/27 04:29:26;;;;;;;;;;;;;;;11.68;100.00;101734.06;20954466;28;19932;-62
2022/10/27 04:39:48;;;;;;;;;;;;;;;11.63;100.00;101725.66;20960868;28;19924;-62
2022/10/27 04:50:09;;;;;;;;;;;;;;;11.49;100.00;101712.47;20959297;28;20415;-64
2022/10/27 05:00:30;;;;;;;;;;;;;;;11.39;100.00;101724.31;20973736;28;19928;-64
2022/10/27 05:10:57;;;;;;;;;;;;;;;11.29;100.00;101719.66;20960155;28;19929;-62
2022/10/27 05:21:18;;;;;;;;;;;;;;;11.21;100.00;101727.91;20951504;28;19928;-64
2022/10/27 05:31:40;;;;;;;;;;;;;;;11.23;100.00;101735.66;20959189;28;19942;-63
2022/10/27 05:42:01;;;;;;;;;;;;;;;11.36;100.00;101747.97;20948967;28;19933;-63
2022/10/27 05:52:22;;;;;;;;;;;;;;;11.22;100.00;101750.47;20969963;28;20090;-62
2022/10/27 06:02:44;;;;;;;;;;;;;;;11.18;100.00;101758.53;20967703;28;20262;-62
2022/10/27 06:13:05;;;;;;;;;;;;;;;11.17;100.00;101757.72;20967250;28;19924;-62
2022/10/27 06:23:27;;;;;;;;;;;;;;;11.17;100.00;101757.72;20969599;28;19932;-62
2022/10/27 06:33:48;;;;;;;;;;;;;;;11.34;100.00;101765.50;20966159;28;19952;-62
2022/10/27 06:44:10;;;;;;;;;;;;;;;11.47;100.00;101771.75;20969648;28;19928;-62
2022/10/27 06:54:33;;;;;;;;;;;;;;;11.54;100.00;101771.38;20965420;28;20397;-62
2022/10/27 07:04:55;;;;;;;;;;;;;;;11.65;100.00;101770.78;20953675;28;19935;-62
2022/10/27 07:15:16;;;;;;;;;;;;;;;11.67;100.00;101774.16;20968202;28;19932;-62
2022/10/27 07:25:38;;;;;;;;;;;;;;;11.68;100.00;101776.72;20948238;28;19995;-62
2022/10/27 07:35:59;;;;;;;;;;;;;;;12.00;100.00;101781.03;20974286;28;19978;-62
2022/10/27 07:46:21;;;;;;;;;;;;;;;12.00;100.00;101788.00;20951349;28;19979;-62
2022/10/27 07:56:42;;;;;;;;;;;;;;;12.17;100.00;101793.16;20947539;28;19968;-63
2022/10/27 08:07:03;;;;;;;;;;;;;;;12.28;100.00;101794.25;20973213;28;19982;-62
2022/10/27 08:17:27;;;;;;;;;;;;;;;12.38;100.00;101794.53;20947941;28;19954;-62
2022/10/27 08:27:49;;;;;;;;;;;;;;;12.69;100.00;101780.47;21011896;28;20417;-62
2022/10/27 08:38:12;;;;;;;;;;;;;;;12.95;100.00;101766.72;20971024;28;20021;-62
2022/10/27 08:48:34;;;;;;;;;;;;;;;13.21;100.00;101763.44;20960258;28;19928;-61
2022/10/27 08:58:56;;;;;;;;;;;;;;;13.37;100.00;101768.56;20962256;28;19932;-63
2022/10/27 09:09:36;;;;;;;;;;;;;;;13.57;100.00;101771.63;20937330;28;19937;-62
2022/10/27 09:20:00;;;;;;;;;;;;;;;13.65;100.00;101764.16;20967304;28;20591;-63
2022/10/27 09:30:21;;;;;;;;;;;;;;;14.07;100.00;101756.19;20984148;28;20066;-62
2022/10/27 09:40:43;;;;;;;;;;;;;;;14.26;100.00;101756.75;20953691;28;19929;-62
2022/10/27 09:51:19;;;;;;;;;;;;;;;14.57;100.00;101750.19;20973790;28;19982;-63
2022/10/27 10:01:47;;;;;;;;;;;;;;;14.61;100.00;101753.50;20973660;28;19932;-63
2022/10/27 10:12:17;;;;;;;;;;;;;;;15.18;100.00;101739.88;20969731;28;20007;-62
2022/10/27 10:22:49;;;;;;;;;;;;;;;15.24;100.00;101734.19;20951458;28;20027;-63
2022/10/27 10:33:14;;;;;;;;;;;;;;;15.69;100.00;101725.75;20948369;28;19932;-63
2022/10/27 10:43:36;;;;;;;;;;;;;;;15.59;100.00;101715.03;20947483;28;19959;-63
2022/10/27 10:53:59;;;;;;;;;;;;;;;16.06;99.17;101707.22;20967234;28;19933;-62
2022/10/27 11:04:24;;;;;;;;;;;;;;;16.21;99.51;101698.19;20963516;28;20709;-63
2022/10/27 11:14:47;;;;;;;;;;;;;;;16.55;94.55;101681.56;20994643;28;19979;-63
2022/10/27 11:25:17;;;;;;;;;;;;;;;16.94;90.67;101676.72;20964359;28;20352;-63
2022/10/27 11:35:54;;;;;;;;;;;;;;;16.91;89.58;101674.34;20959076;28;19932;-63
2022/10/27 11:46:21;;;;;;;;;;;;;;;17.02;89.77;101655.06;20950840;28;19935;-62
2022/10/27 11:56:49;;;;;;;;;;;;;;;17.15;87.32;101651.38;20949024;28;19928;-63
2022/10/27 12:07:20;;;;;;;;;;;;;;;17.22;87.03;101647.28;20959669;28;19982;-64
2022/10/27 12:17:47;;;;;;;;;;;;;;;17.23;87.41;101633.13;20973182;28;20723;-64
2022/10/27 12:28:11;;;;;;;;;;;;;;;17.07;90.07;101622.13;20942204;28;20566;-63
2022/10/27 12:38:52;;;;;;;;;;;;;;;16.83;95.50;101613.53;20941427;28;19932;-64
2022/10/27 12:49:25;;;;;;;;;;;;;;;17.08;91.56;101617.72;20960833;28;19982;-64
2022/10/27 12:59:53;;;;;;;;;;;;;;;17.00;91.65;101594.59;20937566;28;21723;-64
2022/10/27 13:10:36;;;;;;;;;;;;;;;17.01;91.80;101571.72;20967222;28;20572;-64
2022/10/27 13:21:03;;;;;;;;;;;;;;;16.88;91.81;101563.94;20939887;28;20313;-64
2022/10/27 13:31:25;;;;;;;;;;;;;;;17.12;90.19;101562.00;20935734;28;19929;-64
2022/10/27 13:42:07;;;;;;;;;;;;;;;17.15;91.68;101540.69;20971432;28;19931;-64
2022/10/27 13:52:29;;;;;;;;;;;;;;;17.29;90.86;101527.22;20958086;28;20297;-64
2022/10/27 14:02:51;;;;;;;;;;;;;;;17.06;93.40;101522.97;20979478;28;19924;-64
2022/10/27 14:13:21;;;;;;;;;;;;;;;17.13;93.07;101525.94;20969198;28;19929;-64
2022/10/27 14:23:43;;;;;;;;;;;;;;;17.07;92.68;101515.91;20957817;28;20006;-63
2022/10/27 14:34:15;;;;;;;;;;;;;;;17.11;92.57;101507.63;20951113;28;19967;-63
2022/10/27 14:44:36;;;;;;;;;;;;;;;16.95;95.14;101501.09;20949127;28;19972;-64
2022/10/27 14:54:59;;;;;;;;;;;;;;;16.97;93.46;101489.47;20975103;28;19925;-64
2022/10/27 15:05:23;;;;;;;;;;;;;;;16.94;92.68;101497.59;20954902;28;19975;-64
2022/10/27 15:15:46;;;;;;;;;;;;;;;16.84;92.85;101486.13;20971878;28;19928;-63
2022/10/27 15:26:11;;;;;;;;;;;;;;;16.60;95.03;101479.34;20955914;28;19928;-64
2022/10/27 15:36:33;;;;;;;;;;;;;;;16.49;95.36;101482.81;20945508;28;19956;-64
2022/10/27 15:46:54;;;;;;;;;;;;;;;16.42;95.50;101477.34;20957804;28;19933;-64
2022/10/27 15:57:29;;;;;;;;;;;;;;;16.29;96.54;101453.72;20969508;28;20377;-64
2022/10/27 16:07:50;;;;;;;;;;;;;;;16.35;95.07;101426.13;20954678;28;19990;-64
2022/10/27 16:18:13;;;;;;;;;;;;;;;16.09;97.73;101435.19;20977160;28;19924;-64
2022/10/27 16:28:37;;;;;;;;;;;;;;;16.22;95.64;101428.00;20937798;28;19998;-64
2022/10/27 16:38:58;;;;;;;;;;;;;;;16.04;98.17;101411.03;20938161;28;19937;-65
2022/10/27 16:49:20;;;;;;;;;;;;;;;16.10;96.84;101394.78;20930247;28;19929;-64
2022/10/27 16:59:41;;;;;;;;;;;;;;;16.12;96.08;101379.72;20944366;28;20368;-64
2022/10/27 17:10:03;;;;;;;;;;;;;;;16.03;96.62;101368.13;20953817;28;20645;-65
2022/10/27 17:20:24;;;;;;;;;;;;;;;15.95;97.01;101367.03;20968866;28;20381;-65
2022/10/27 17:30:46;;;;;;;;;;;;;;;15.95;96.42;101353.88;20956277;28;20015;-64
2022/10/27 17:41:09;;;;;;;;;;;;;;;16.00;96.29;101362.28;20951926;28;19932;-64
2022/10/27 17:51:31;;;;;;;;;;;;;;;15.78;97.71;101357.00;20955886;28;19932;-64
2022/10/27 18:01:53;;;;;;;;;;;;;;;15.75;97.63;101344.06;20960698;28;19925;-64
2022/10/27 18:12:14;;;;;;;;;;;;;;;15.76;97.18;101343.97;20957808;28;19924;-65
2022/10/27 18:22:36;;;;;;;;;;;;;;;15.82;97.05;101364.50;20954072;28;19964;-64
2022/10/27 18:32:57;;;;;;;;;;;;;;;15.72;97.70;101367.97;20968669;28;19928;-65
2022/10/27 18:43:18;;;;;;;;;;;;;;;15.69;98.03;101368.22;20966495;28;20407;-64
2022/10/27 18:53:40;;;;;;;;;;;;;;;15.53;98.84;101365.09;20975040;28;20396;-64
2022/10/27 19:04:05;;;;;;;;;;;;;;;15.58;98.63;101376.94;20956173;28;19928;-64
2022/10/27 19:14:26;;;;;;;;;;;;;;;15.35;100.00;101391.94;20951531;28;19999;-64
2022/10/27 19:24:47;;;;;;;;;;;;;;;15.22;100.00;101384.09;20965573;28;19956;-64
2022/10/27 19:35:09;;;;;;;;;;;;;;;15.06;100.00;101380.94;20941872;28;19933;-64
2022/10/27 19:45:30;;;;;;;;;;;;;;;14.84;100.00;101372.97;20944928;28;20074;-64
2022/10/27 19:55:57;;;;;;;;;;;;;;;14.76;100.00;101370.06;20983859;28;19978;-64
2022/10/27 20:06:19;;;;;;;;;;;;;;;14.84;100.00;101366.88;20961261;28;20444;-64
2022/10/27 20:16:42;;;;;;;;;;;;;;;14.72;100.00;101360.72;20961841;28;19975;-64
2022/10/27 20:27:03;;;;;;;;;;;;;;;14.50;100.00;101358.00;20970057;28;19959;-63
2022/10/27 20:37:24;;;;;;;;;;;;;;;14.39;100.00;101366.75;20979469;28;19958;-64
2022/10/27 20:47:46;;;;;;;;;;;;;;;14.29;100.00;101363.09;20957042;28;19932;-64
2022/10/27 20:58:07;;;;;;;;;;;;;;;14.43;100.00;101355.06;20960299;28;19925;-64
2022/10/27 21:08:28;;;;;;;;;;;;;;;14.38;100.00;101351.97;20987239;28;19968;-64
2022/10/27 21:18:51;;;;;;;;;;;;;;;14.18;100.00;101344.66;21001478;28;19929;-64
2022/10/27 21:29:13;;;;;;;;;;;;;;;14.16;100.00;101334.31;20990038;28;19925;-64
2022/10/27 21:39:34;;;;;;;;;;;;;;;14.31;100.00;101345.47;20973914;28;19998;-64
2022/10/27 21:49:55;;;;;;;;;;;;;;;14.52;100.00;101381.50;21007040;28;20377;-64
2022/10/27 22:00:17;;;;;;;;;;;;;;;14.50;100.00;101379.00;20990681;28;20577;-64
2022/10/27 22:10:38;;;;;;;;;;;;;;;14.27;100.00;101359.72;20971438;28;19924;-64
2022/10/27 22:21:00;;;;;;;;;;;;;;;14.28;100.00;101369.28;20987073;28;19989;-65
2022/10/27 22:31:26;;;;;;;;;;;;;;;14.02;100.00;101378.13;20964727;28;20339;-64
2022/10/27 22:41:47;;;;;;;;;;;;;;;14.02;100.00;101396.47;20993530;28;19974;-64
2022/10/27 22:52:09;;;;;;;;;;;;;;;13.87;100.00;101387.03;20987071;28;20420;-64
2022/10/27 23:02:30;;;;;;;;;;;;;;;13.81;100.00;101387.50;20966178;28;19928;-64
2022/10/27 23:12:52;;;;;;;;;;;;;;;13.83;100.00;101380.34;20962851;28;19924;-64
2022/10/27 23:23:13;;;;;;;;;;;;;;;13.86;100.00;101385.38;20963446;28;19995;-65
2022/10/27 23:33:35;;;;;;;;;;;;;;;13.65;100.00;101386.84;20966630;28;19924;-64
2022/10/27 23:43:57;;;;;;;;;;;;;;;13.62;100.00;101403.59;20978534;28;19924;-64
2022/10/27 23:54:18;;;;;;;;;;;;;;;13.59;100.00;101397.75;20980222;28;19925;-64
